Time;durP1;ratioP1;P1;durP2;ratioP2;P2;SDS_P1;SDS_P2;PMS_P1;PMS_P2;Temp;Humidity;BMP_temperature;BMP_pressure;BME280_temperature;BME280_humidity;BME280_pressure;Samples;Min_cycle;Max_cycle;Signal;HPM_P1;HPM_P2
2024/03/30 00:01:47;;;;;;;0.30;0.30;;;;;;;18.10;46.70;99456.19;5001125;28;20037;-70
2024/03/30 00:04:12;;;;;;;0.68;0.60;;;;;;;18.09;46.23;99451.84;5017578;28;20547;-70
2024/03/30 00:06:38;;;;;;;0.73;0.70;;;;;;;18.10;46.54;99450.75;5001189;28;20045;-70
2024/03/30 00:09:03;;;;;;;1.85;0.90;;;;;;;18.09;46.72;99436.38;5017827;28;20087;-70
2024/03/30 00:11:30;;;;;;;2.88;0.77;;;;;;;18.09;46.32;99422.81;5001195;28;20108;-70
2024/03/30 00:13:56;;;;;;;2.08;0.70;;;;;;;18.10;46.35;99412.81;4984895;28;20056;-70
2024/03/30 00:16:21;;;;;;;0.50;0.50;;;;;;;18.12;47.05;99418.88;5001055;28;20029;-70
2024/03/30 00:18:48;;;;;;;0.60;0.50;;;;;;;18.12;46.56;99413.47;5017200;28;20041;-70
2024/03/30 00:21:17;;;;;;;0.70;0.70;;;;;;;18.13;46.22;99401.56;5017492;28;20657;-71
2024/03/30 00:23:42;;;;;;;1.00;0.70;;;;;;;18.13;46.58;99405.09;5001487;28;20037;-70
2024/03/30 00:26:08;;;;;;;1.88;1.10;;;;;;;18.12;47.03;99408.03;5035123;28;20032;-70
2024/03/30 00:28:34;;;;;;;2.72;1.40;;;;;;;18.13;46.80;99407.81;5034775;28;20489;-70
2024/03/30 00:30:59;;;;;;;1.42;1.00;;;;;;;18.12;46.73;99394.50;4984740;28;20038;-70
2024/03/30 00:33:25;;;;;;;1.00;0.90;;;;;;;18.12;46.45;99399.91;5017119;28;20493;-71
2024/03/30 00:35:54;;;;;;;0.85;0.80;;;;;;;18.10;47.20;99397.41;5017054;28;20033;-70
2024/03/30 00:38:19;;;;;;;1.48;0.70;;;;;;;18.12;47.02;99398.00;5000623;28;20052;-70
2024/03/30 00:40:45;;;;;;;2.55;1.00;;;;;;;18.11;46.18;99399.06;5034497;28;20105;-70
2024/03/30 00:43:10;;;;;;;1.35;0.63;;;;;;;18.12;46.52;99389.88;5016954;28;20106;-71
2024/03/30 00:45:39;;;;;;;3.65;0.70;;;;;;;18.12;46.65;99397.19;5000634;28;20405;-71
2024/03/30 00:48:06;;;;;;;1.70;0.80;;;;;;;18.09;46.89;99386.78;5016711;28;20041;-70
2024/03/30 00:50:31;;;;;;;1.95;0.70;;;;;;;18.02;47.20;99374.09;5016614;28;20033;-71
2024/03/30 00:52:57;;;;;;;3.25;1.50;;;;;;;17.99;46.88;99379.94;4984205;28;20124;-71
2024/03/30 00:55:22;;;;;;;0.98;0.70;;;;;;;17.97;47.17;99387.44;5016700;28;20022;-71
2024/03/30 00:57:48;;;;;;;1.65;0.82;;;;;;;17.91;47.28;99382.03;5000430;28;20505;-71
2024/03/30 01:00:14;;;;;;;0.63;0.63;;;;;;;17.89;47.64;99382.25;5016501;28;20567;-71
2024/03/30 01:02:40;;;;;;;4.15;0.77;;;;;;;17.87;47.84;99376.19;5016569;28;20040;-71
2024/03/30 01:05:06;;;;;;;1.45;0.73;;;;;;;17.82;48.07;99351.63;5016499;28;20116;-71
2024/03/30 01:07:31;;;;;;;1.48;0.73;;;;;;;17.80;47.88;99348.28;5016015;28;20168;-71
2024/03/30 01:09:57;;;;;;;1.98;0.70;;;;;;;17.81;47.47;99339.09;5000124;28;20064;-71
2024/03/30 01:12:24;;;;;;;0.80;0.73;;;;;;;17.78;48.18;99330.59;4983829;28;20553;-71
2024/03/30 01:14:50;;;;;;;0.82;0.65;;;;;;;17.80;48.00;99331.22;4999848;28;20068;-71
2024/03/30 01:17:17;;;;;;;0.40;0.40;;;;;;;17.79;47.35;99330.38;4999721;28;20049;-71
2024/03/30 01:19:46;;;;;;;1.50;0.65;;;;;;;17.79;47.78;99324.94;5033879;28;20037;-70
2024/03/30 01:22:12;;;;;;;0.75;0.73;;;;;;;17.81;47.88;99322.84;4999966;28;20519;-71
2024/03/30 01:24:38;;;;;;;0.45;0.45;;;;;;;17.81;47.31;99322.03;4999804;28;20041;-71
2024/03/30 01:27:08;;;;;;;1.45;0.85;;;;;;;17.84;47.46;99332.44;5016272;28;20033;-71
2024/03/30 01:29:35;;;;;;;1.25;0.77;;;;;;;17.81;47.93;99327.47;4982407;28;20465;-71
2024/03/30 01:32:01;;;;;;;1.50;0.75;;;;;;;17.82;47.52;99329.09;4999728;28;20516;-70
2024/03/30 01:34:27;;;;;;;1.13;0.85;;;;;;;17.82;47.50;99335.38;4999613;28;20064;-70
2024/03/30 01:36:52;;;;;;;1.55;1.02;;;;;;;17.81;47.21;99339.09;5016185;28;20026;-70
2024/03/30 01:39:18;;;;;;;1.55;0.85;;;;;;;17.81;47.71;99336.41;5000113;28;20464;-70
2024/03/30 01:41:43;;;;;;;2.17;1.30;;;;;;;17.83;47.81;99330.78;5000554;28;20033;-70
2024/03/30 01:44:09;;;;;;;0.98;0.88;;;;;;;17.84;47.91;99322.44;5000200;28;20109;-70
2024/03/30 01:46:35;;;;;;;1.73;0.95;;;;;;;17.83;47.98;99315.38;5000509;28;20044;-70
2024/03/30 01:49:02;;;;;;;1.40;1.02;;;;;;;17.86;47.62;99314.09;5000203;28;20029;-70
2024/03/30 01:51:28;;;;;;;1.77;1.30;;;;;;;17.85;47.60;99309.72;5016644;28;20037;-70
2024/03/30 01:53:53;;;;;;;1.20;1.10;;;;;;;17.85;47.68;99305.16;5016515;28;20571;-70
2024/03/30 01:56:20;;;;;;;2.35;1.60;;;;;;;17.85;47.99;99301.59;5000237;28;20072;-70
2024/03/30 01:58:48;;;;;;;1.10;1.00;;;;;;;17.86;47.77;99295.97;5000290;28;20103;-70
2024/03/30 02:01:16;;;;;;;2.00;1.42;;;;;;;17.87;48.14;99291.38;5016525;28;20045;-70
2024/03/30 02:03:42;;;;;;;1.05;0.80;;;;;;;17.87;47.45;99278.66;5033552;28;20458;-70
2024/03/30 02:06:08;;;;;;;1.13;1.02;;;;;;;17.83;47.88;99266.59;4999354;28;20037;-70
2024/03/30 02:08:35;;;;;;;1.90;1.38;;;;;;;17.82;47.73;99261.38;4999498;28;20501;-69
2024/03/30 02:11:01;;;;;;;1.67;1.58;;;;;;;17.81;47.66;99263.25;4999757;28;20047;-68
2024/03/30 02:13:28;;;;;;;3.95;1.52;;;;;;;17.80;48.05;99258.91;4983271;28;20033;-69
2024/03/30 02:15:54;;;;;;;1.45;1.30;;;;;;;17.81;47.85;99257.03;4983323;28;20117;-69
2024/03/30 02:18:19;;;;;;;1.25;1.20;;;;;;;17.82;48.11;99254.09;5015503;28;20479;-69
2024/03/30 02:20:45;;;;;;;1.20;1.10;;;;;;;17.84;48.55;99260.13;5015953;28;20042;-69
2024/03/30 02:23:17;;;;;;;1.48;0.98;;;;;;;17.83;48.07;99258.47;5015800;28;20052;-70
2024/03/30 02:25:42;;;;;;;2.53;1.08;;;;;;;17.86;47.39;99262.63;5015582;28;20029;-69
2024/03/30 02:28:08;;;;;;;2.00;1.52;;;;;;;17.86;48.44;99254.50;4998688;28;20053;-70
2024/03/30 02:30:33;;;;;;;2.85;1.25;;;;;;;17.87;48.07;99262.41;4998837;28;20038;-70
2024/03/30 02:32:59;;;;;;;1.45;1.35;;;;;;;17.86;47.53;99255.34;4982761;28;20409;-70
2024/03/30 02:35:25;;;;;;;2.17;1.05;;;;;;;17.88;48.20;99255.13;4999863;28;20038;-70
2024/03/30 02:37:54;;;;;;;2.65;1.08;;;;;;;17.88;47.85;99255.94;5016831;28;20030;-70
2024/03/30 02:40:22;;;;;;;1.20;1.20;;;;;;;17.88;47.83;99253.25;5001146;28;20420;-70
2024/03/30 02:42:48;;;;;;;0.95;0.95;;;;;;;17.86;48.41;99244.50;4993094;28;20034;-69
2024/03/30 02:45:14;;;;;;;1.02;0.95;;;;;;;17.87;47.68;99235.31;5011938;28;20030;-69
2024/03/30 02:47:40;;;;;;;0.85;0.85;;;;;;;17.84;47.48;99241.16;4979273;28;20026;-69
2024/03/30 02:50:05;;;;;;;0.88;0.85;;;;;;;17.85;48.11;99232.00;4995951;28;20429;-69
2024/03/30 02:52:31;;;;;;;5.32;1.38;;;;;;;17.83;47.36;99234.09;4995249;28;20037;-69
2024/03/30 02:54:57;;;;;;;1.30;1.20;;;;;;;17.84;47.90;99246.59;4995585;28;20034;-69
2024/03/30 02:57:22;;;;;;;1.92;0.80;;;;;;;17.84;47.92;99252.00;5011818;28;20049;-69
2024/03/30 02:59:48;;;;;;;1.33;1.17;;;;;;;17.83;48.25;99250.34;4979271;28;20088;-69
2024/03/30 03:02:13;;;;;;;1.25;1.13;;;;;;;17.84;47.65;99240.31;5011635;28;20096;-69
2024/03/30 03:04:39;;;;;;;1.92;1.20;;;;;;;17.80;47.52;99229.13;5011931;28;20041;-69
2024/03/30 03:07:06;;;;;;;1.35;1.08;;;;;;;17.78;47.67;99225.75;5013025;28;20045;-69
2024/03/30 03:09:31;;;;;;;0.70;0.70;;;;;;;17.79;47.74;99224.72;5011560;28;20169;-69
2024/03/30 03:11:57;;;;;;;1.92;0.90;;;;;;;17.78;47.82;99230.38;4978951;28;20062;-69
2024/03/30 03:14:23;;;;;;;1.10;1.00;;;;;;;17.75;48.17;99231.63;4995148;28;20038;-69
2024/03/30 03:16:48;;;;;;;1.33;0.85;;;;;;;17.71;48.30;99230.38;5012402;28;20038;-69
2024/03/30 03:19:14;;;;;;;1.52;0.70;;;;;;;17.70;47.73;99228.72;5011421;28;20168;-70
2024/03/30 03:21:39;;;;;;;0.93;0.80;;;;;;;17.71;47.50;99234.97;4979109;28;20113;-70
2024/03/30 03:24:05;;;;;;;1.95;0.77;;;;;;;17.68;47.93;99233.53;4995191;28;20498;-70
2024/03/30 03:26:30;;;;;;;1.92;1.10;;;;;;;17.67;48.18;99228.34;4997850;28;20041;-70
2024/03/30 03:28:56;;;;;;;1.10;1.00;;;;;;;17.69;47.22;99227.06;4998963;28;20052;-70
2024/03/30 03:31:21;;;;;;;0.93;0.85;;;;;;;17.68;48.24;99228.09;5035755;28;20033;-69
2024/03/30 03:33:47;;;;;;;1.58;1.20;;;;;;;17.67;48.72;99234.56;5018104;28;20029;-69
2024/03/30 03:36:12;;;;;;;1.63;0.90;;;;;;;17.65;47.66;99231.25;5018104;28;20064;-69
2024/03/30 03:38:38;;;;;;;1.73;1.27;;;;;;;17.64;48.36;99224.19;5018052;28;20037;-69
2024/03/30 03:41:03;;;;;;;1.75;1.15;;;;;;;17.61;47.36;99232.72;5017925;28;20428;-69
2024/03/30 03:43:29;;;;;;;1.23;0.80;;;;;;;17.61;48.24;99218.34;5017939;28;20038;-69
2024/03/30 03:45:58;;;;;;;1.85;1.15;;;;;;;17.61;48.13;99219.19;5001677;28;20168;-69
2024/03/30 03:48:23;;;;;;;1.67;1.08;;;;;;;17.61;47.88;99221.06;5017402;28;20029;-69
2024/03/30 03:50:49;;;;;;;1.00;0.90;;;;;;;17.59;47.99;99221.25;5001859;28;20048;-69
2024/03/30 03:53:14;;;;;;;1.13;1.02;;;;;;;17.59;47.82;99215.84;5001370;28;20045;-69
2024/03/30 03:55:40;;;;;;;1.77;1.52;;;;;;;17.53;47.55;99210.44;5018161;28;20033;-70
2024/03/30 03:58:05;;;;;;;2.65;1.25;;;;;;;17.57;47.16;99212.53;5017500;28;20553;-69
2024/03/30 04:00:31;;;;;;;3.03;1.13;;;;;;;17.58;47.77;99211.50;5017660;28;20120;-69
2024/03/30 04:02:57;;;;;;;1.88;1.10;;;;;;;17.56;47.66;99216.25;5001406;28;20022;-69
2024/03/30 04:05:24;;;;;;;1.50;1.40;;;;;;;17.54;47.97;99207.53;5001274;28;20362;-69
2024/03/30 04:07:51;;;;;;;1.23;1.13;;;;;;;17.55;47.20;99205.66;4984983;28;20037;-69
2024/03/30 04:10:17;;;;;;;1.65;0.95;;;;;;;17.53;48.18;99205.88;5017720;28;20018;-69
2024/03/30 04:12:43;;;;;;;1.30;1.00;;;;;;;17.54;48.69;99202.13;5017590;28;20029;-69
2024/03/30 04:15:08;;;;;;;4.03;1.13;;;;;;;17.51;48.02;99202.50;5017308;28;20079;-69
2024/03/30 04:17:34;;;;;;;3.00;1.30;;;;;;;17.50;48.98;99198.16;5017359;28;20033;-69
2024/03/30 04:19:59;;;;;;;4.68;1.38;;;;;;;17.50;48.28;99191.91;5017155;28;20036;-69
2024/03/30 04:22:25;;;;;;;3.15;0.93;;;;;;;17.49;48.30;99185.66;4984553;28;20444;-69
2024/03/30 04:24:50;;;;;;;8.57;1.58;;;;;;;17.48;48.46;99182.13;5017134;28;20447;-69
2024/03/30 04:27:16;;;;;;;2.45;1.15;;;;;;;17.48;47.51;99173.16;5000893;28;20120;-69
2024/03/30 04:29:41;;;;;;;6.50;1.55;;;;;;;17.49;47.74;99166.72;4984414;28;20045;-69
2024/03/30 04:32:07;;;;;;;1.40;1.30;;;;;;;17.47;48.02;99163.41;5016989;28;20040;-69
2024/03/30 04:34:32;;;;;;;3.05;1.75;;;;;;;17.46;48.32;99164.44;5000593;28;20100;-69
2024/03/30 04:36:58;;;;;;;5.85;1.42;;;;;;;17.43;48.05;99157.56;5000708;28;20120;-69
2024/03/30 04:39:24;;;;;;;7.32;1.73;;;;;;;17.46;48.19;99161.72;5000541;28;20370;-69
2024/03/30 04:41:49;;;;;;;3.92;1.30;;;;;;;17.44;47.93;99163.81;5017006;28;20404;-70
2024/03/30 04:44:14;;;;;;;3.72;1.15;;;;;;;17.40;48.40;99157.16;5016856;28;20028;-70
2024/03/30 04:46:40;;;;;;;1.52;1.27;;;;;;;17.39;48.89;99160.94;4984264;28;20186;-69
2024/03/30 04:49:05;;;;;;;1.63;1.40;;;;;;;17.40;48.52;99167.97;5016874;28;20049;-69
2024/03/30 04:51:31;;;;;;;2.30;1.63;;;;;;;17.38;48.30;99153.84;5000645;28;20045;-69
2024/03/30 04:53:57;;;;;;;1.60;1.20;;;;;;;17.37;48.62;99157.56;5000343;28;20428;-69
2024/03/30 04:56:24;;;;;;;2.55;1.27;;;;;;;17.38;48.72;99159.25;5016692;28;20068;-70
2024/03/30 04:58:50;;;;;;;1.90;0.95;;;;;;;17.37;48.19;99153.00;5016956;28;20052;-70
2024/03/30 05:01:16;;;;;;;1.90;1.33;;;;;;;17.35;48.02;99143.44;4984085;28;20041;-70
2024/03/30 05:03:41;;;;;;;3.75;1.30;;;;;;;17.33;48.36;99145.53;5016697;28;20045;-70
2024/03/30 05:06:07;;;;;;;2.10;1.50;;;;;;;17.33;48.37;99145.53;5000293;28;20477;-69
2024/03/30 05:08:33;;;;;;;1.63;1.23;;;;;;;17.32;48.80;99155.53;5000080;28;20033;-69
2024/03/30 05:10:58;;;;;;;2.15;1.10;;;;;;;17.32;47.85;99150.13;4983812;28;20040;-69
2024/03/30 05:13:24;;;;;;;2.92;1.23;;;;;;;17.29;48.63;99152.41;4984134;28;20489;-70
2024/03/30 05:15:50;;;;;;;5.07;1.08;;;;;;;17.28;47.90;99153.47;5016310;28;20041;-69
2024/03/30 05:18:17;;;;;;;3.22;1.48;;;;;;;17.29;48.48;99155.13;5016470;28;20033;-69
2024/03/30 05:20:49;;;;;;;4.43;1.60;;;;;;;17.28;48.05;99154.28;5015885;28;20041;-69
2024/03/30 05:23:29;;;;;;;5.88;1.90;;;;;;;17.25;48.05;99148.47;5000431;28;20382;-69
2024/03/30 05:25:56;;;;;;;6.07;1.65;;;;;;;17.27;48.12;99146.38;5016173;28;20038;-69
2024/03/30 05:28:23;;;;;;;4.43;2.10;;;;;;;17.23;47.83;99134.31;5015935;28;20041;-69
2024/03/30 05:30:51;;;;;;;7.35;2.67;;;;;;;17.23;48.68;99131.59;5016359;28;20083;-70
2024/03/30 05:33:17;;;;;;;7.55;2.50;;;;;;;17.21;48.66;99137.25;4999527;28;20116;-69
2024/03/30 05:35:45;;;;;;;5.45;2.55;;;;;;;17.23;48.48;99139.72;4999782;28;20037;-69
2024/03/30 05:38:11;;;;;;;6.30;2.33;;;;;;;17.19;48.92;99133.09;4983392;28;20117;-69
2024/03/30 05:40:36;;;;;;;5.60;2.63;;;;;;;17.20;48.77;99140.16;5015882;28;20120;-70
2024/03/30 05:43:03;;;;;;;4.22;2.70;;;;;;;17.21;48.71;99141.81;5015816;28;20053;-69
2024/03/30 05:45:30;;;;;;;4.25;2.33;;;;;;;17.22;48.92;99146.19;5033665;28;20125;-69
2024/03/30 05:47:55;;;;;;;4.88;2.45;;;;;;;17.19;48.31;99152.03;4999731;28;20524;-69
2024/03/30 05:50:22;;;;;;;6.43;2.90;;;;;;;17.20;48.05;99156.38;5017534;28;20037;-69
2024/03/30 05:52:47;;;;;;;5.75;2.65;;;;;;;17.22;48.23;99154.31;5015107;28;20501;-69
2024/03/30 05:55:13;;;;;;;4.70;2.17;;;;;;;17.23;48.92;99161.38;5015790;28;20116;-69
2024/03/30 05:57:42;;;;;;;3.95;2.47;;;;;;;17.23;48.86;99166.78;5015706;28;20529;-69
2024/03/30 06:00:12;;;;;;;6.95;3.40;;;;;;;17.23;48.52;99162.22;5033307;28;20104;-69
2024/03/30 06:02:44;;;;;;;7.78;3.20;;;;;;;17.24;48.29;99165.75;5033381;28;20057;-69
2024/03/30 06:05:11;;;;;;;9.25;2.72;;;;;;;17.26;48.47;99171.78;4999315;28;20061;-69
2024/03/30 06:07:37;;;;;;;6.57;3.20;;;;;;;17.27;48.45;99168.03;4999058;28;20090;-69
2024/03/30 06:10:07;;;;;;;6.05;2.90;;;;;;;17.26;48.52;99163.66;5015901;28;20045;-69
2024/03/30 06:12:32;;;;;;;7.32;3.38;;;;;;;17.27;48.45;99159.91;4999038;28;20037;-69
2024/03/30 06:14:58;;;;;;;8.88;3.05;;;;;;;17.28;48.33;99153.47;5033219;28;20394;-70
2024/03/30 06:17:23;;;;;;;7.00;3.70;;;;;;;17.29;48.18;99144.28;4982765;28;20029;-69
2024/03/30 06:19:48;;;;;;;3.92;2.67;;;;;;;17.30;49.03;99143.25;5015226;28;20045;-69
2024/03/30 06:22:14;;;;;;;6.25;3.03;;;;;;;17.31;48.32;99147.59;5015526;28;20042;-69
2024/03/30 06:24:40;;;;;;;5.25;3.50;;;;;;;17.32;48.78;99143.88;5033242;28;20033;-69
2024/03/30 06:27:06;;;;;;;7.47;4.00;;;;;;;17.35;48.29;99154.25;5032887;28;20501;-69
2024/03/30 06:29:32;;;;;;;5.50;3.35;;;;;;;17.32;48.68;99141.16;4982742;28;20042;-69
2024/03/30 06:31:58;;;;;;;6.60;3.60;;;;;;;17.33;48.76;99145.53;4999024;28;20047;-69
2024/03/30 06:34:24;;;;;;;6.93;3.92;;;;;;;17.35;48.54;99148.84;4982631;28;20029;-69
2024/03/30 06:36:49;;;;;;;10.48;4.15;;;;;;;17.37;48.95;99130.50;4998977;28;20044;-69
2024/03/30 06:39:15;;;;;;;7.70;4.10;;;;;;;17.35;48.96;99121.78;4998612;28;20037;-69
2024/03/30 06:44:24;;;;;;;7.30;4.13;;;;;;;17.39;48.46;99123.03;5001199;28;20095;-70
2024/03/30 06:46:49;;;;;;;8.48;4.03;;;;;;;17.38;49.25;99122.19;4998529;28;20033;-70
2024/03/30 06:49:15;;;;;;;8.70;4.63;;;;;;;17.41;48.84;99118.22;5032777;28;20041;-70
2024/03/30 06:51:40;;;;;;;7.65;4.28;;;;;;;17.38;48.43;99105.94;5015146;28;20059;-70
2024/03/30 06:54:06;;;;;;;6.07;3.83;;;;;;;17.41;48.86;99120.94;4999078;28;20117;-70
2024/03/30 06:56:31;;;;;;;8.48;4.45;;;;;;;17.42;48.75;99112.56;5015250;28;20052;-70
2024/03/30 06:58:57;;;;;;;7.15;4.57;;;;;;;17.47;49.76;99114.66;4998581;28;20552;-70
2024/03/30 07:01:30;;;;;;;8.77;5.28;;;;;;;17.51;49.50;99118.59;4999058;28;20401;-70
2024/03/30 07:03:59;;;;;;;9.45;4.03;;;;;;;17.51;49.01;99112.31;4992256;28;20099;-70
2024/03/30 07:06:25;;;;;;;10.93;4.70;;;;;;;17.56;49.18;99110.66;5020066;28;20060;-70
2024/03/30 07:08:51;;;;;;;9.27;4.78;;;;;;;17.60;49.23;99120.03;5020166;28;20033;-70
2024/03/30 07:11:19;;;;;;;8.82;4.63;;;;;;;17.63;49.23;99113.34;5020022;28;20029;-70
2024/03/30 07:13:45;;;;;;;11.77;4.75;;;;;;;17.67;49.60;99120.00;5038764;28;20033;-69
2024/03/30 07:16:11;;;;;;;7.18;4.38;;;;;;;17.73;49.51;99119.94;5002603;28;20046;-69
2024/03/30 07:18:36;;;;;;;8.45;4.75;;;;;;;17.78;48.48;99116.63;5017930;28;20081;-69
2024/03/30 07:21:02;;;;;;;9.25;4.28;;;;;;;17.78;49.47;99101.16;5018417;28;20033;-69
2024/03/30 07:23:27;;;;;;;6.45;4.00;;;;;;;17.79;49.69;99097.41;5018483;28;20457;-69
2024/03/30 07:25:53;;;;;;;6.75;4.07;;;;;;;17.80;49.38;99093.69;5018503;28;20038;-69
2024/03/30 07:28:18;;;;;;;7.03;4.20;;;;;;;17.78;49.22;99095.75;5001951;28;20466;-69
2024/03/30 07:30:44;;;;;;;9.38;4.35;;;;;;;17.82;48.80;99088.84;5018448;28;20488;-69
2024/03/30 07:33:09;;;;;;;6.03;3.63;;;;;;;17.86;49.88;99081.13;4985671;28;20037;-69
2024/03/30 07:35:35;;;;;;;7.70;4.20;;;;;;;17.87;49.46;99072.78;5018108;28;20064;-69
2024/03/30 07:38:02;;;;;;;6.82;3.30;;;;;;;17.93;49.47;99061.06;5001836;28;20064;-69
2024/03/30 07:40:28;;;;;;;5.90;3.00;;;;;;;17.98;49.32;99072.06;5018067;28;20038;-70
2024/03/30 07:42:53;;;;;;;11.70;3.33;;;;;;;18.06;48.87;99057.44;4985789;28;20017;-69
2024/03/30 07:45:19;;;;;;;8.77;3.47;;;;;;;18.18;48.98;99062.94;5001780;28;20029;-69
2024/03/30 07:47:44;;;;;;;11.82;2.88;;;;;;;18.31;49.23;99062.84;5001487;28;20021;-69
2024/03/30 07:50:10;;;;;;;11.30;3.58;;;;;;;18.48;49.04;99050.44;5017950;28;20057;-69
2024/03/30 07:52:35;;;;;;;23.23;3.10;;;;;;;18.62;49.22;99060.06;5001400;28;20362;-69
2024/03/30 07:55:01;;;;;;;7.13;2.70;;;;;;;18.77;48.44;99054.28;5017977;28;20116;-69
2024/03/30 07:57:27;;;;;;;13.10;2.67;;;;;;;18.93;48.86;99059.09;5001316;28;20067;-69
2024/03/30 07:59:52;;;;;;;15.18;3.08;;;;;;;19.09;48.90;99048.50;5001413;28;20120;-69
2024/03/30 08:02:18;;;;;;;14.40;2.03;;;;;;;19.25;48.57;99057.06;5001374;28;20053;-70
2024/03/30 08:04:43;;;;;;;7.25;2.10;;;;;;;19.37;48.99;99052.53;5001346;28;20044;-70
2024/03/30 08:07:09;;;;;;;24.20;3.33;;;;;;;19.45;48.49;99054.94;5001322;28;20021;-69
2024/03/30 08:09:35;;;;;;;18.33;2.80;;;;;;;19.59;48.39;99051.81;5001439;28;20033;-70
2024/03/30 08:12:00;;;;;;;10.23;2.63;;;;;;;19.67;48.57;99061.53;4984921;28;20017;-70
2024/03/30 08:14:26;;;;;;;19.02;3.65;;;;;;;19.75;48.20;99034.03;5017383;28;20037;-69
2024/03/30 08:16:51;;;;;;;9.50;2.17;;;;;;;19.86;48.26;99054.97;5033949;28;20033;-70
2024/03/30 08:19:17;;;;;;;9.85;2.50;;;;;;;19.97;47.75;99059.59;5000964;28;20041;-69
2024/03/30 08:21:44;;;;;;;22.95;3.33;;;;;;;20.11;48.10;99050.19;5001037;28;20107;-69
2024/03/30 08:24:10;;;;;;;15.85;2.30;;;;;;;20.25;48.13;99050.81;5017822;28;20048;-68
2024/03/30 08:26:35;;;;;;;15.13;2.03;;;;;;;20.39;47.80;99046.81;4984844;28;20021;-70
2024/03/30 08:29:01;;;;;;;17.55;3.75;;;;;;;20.61;47.74;99049.75;5000664;28;20448;-68
2024/03/30 08:31:27;;;;;;;15.18;2.13;;;;;;;20.75;47.99;99052.00;5034916;28;20041;-68
2024/03/30 08:33:52;;;;;;;17.23;4.18;;;;;;;20.86;47.38;99042.16;5017096;28;20038;-69
2024/03/30 08:36:19;;;;;;;17.10;2.83;;;;;;;21.09;47.92;99057.66;5001266;28;20052;-68
2024/03/30 08:38:44;;;;;;;10.52;1.60;;;;;;;21.31;47.40;99054.03;5016758;28;20037;-68
2024/03/30 08:41:10;;;;;;;12.75;3.15;;;;;;;21.46;47.31;99046.19;4984623;28;20040;-69
2024/03/30 08:43:36;;;;;;;20.80;2.50;;;;;;;21.61;47.21;99053.78;5001104;28;20367;-69
2024/03/30 08:46:02;;;;;;;21.75;3.17;;;;;;;21.73;47.35;99048.28;5001002;28;20064;-69
2024/03/30 08:48:28;;;;;;;14.77;2.83;;;;;;;21.85;46.43;99049.06;5000823;28;20409;-69
2024/03/30 08:50:54;;;;;;;20.48;2.75;;;;;;;21.89;46.99;99036.63;5000631;28;20116;-69
2024/03/30 08:53:19;;;;;;;15.60;3.08;;;;;;;21.92;46.65;99042.41;5034426;28;20033;-69
2024/03/30 08:55:46;;;;;;;14.90;1.85;;;;;;;21.94;46.85;99042.19;5000481;28;20040;-69
2024/03/30 08:58:11;;;;;;;24.23;4.07;;;;;;;21.93;46.76;99048.69;5017051;28;20033;-69
2024/03/30 09:00:36;;;;;;;22.77;2.45;;;;;;;21.88;47.21;99040.44;5000380;28;20088;-69
2024/03/30 09:03:03;;;;;;;25.20;3.20;;;;;;;21.86;46.46;99050.72;4983538;28;20496;-69
2024/03/30 09:05:30;;;;;;;18.70;2.35;;;;;;;21.85;47.28;99055.34;5000359;28;20504;-69
2024/03/30 09:07:56;;;;;;;22.70;3.40;;;;;;;21.84;46.48;99058.31;5016882;28;20033;-70
2024/03/30 09:10:23;;;;;;;20.15;2.97;;;;;;;21.89;46.75;99058.44;5016530;28;20044;-70
2024/03/30 09:12:48;;;;;;;28.08;2.88;;;;;;;22.08;45.97;99062.59;5016459;28;20399;-70
2024/03/30 09:15:14;;;;;;;17.73;2.50;;;;;;;22.29;45.75;99070.03;4984135;28;20037;-69
2024/03/30 09:17:39;;;;;;;20.08;4.15;;;;;;;22.41;46.05;99072.69;4983680;28;20040;-70
2024/03/30 09:20:06;;;;;;;16.30;3.25;;;;;;;22.51;45.59;99065.47;5016749;28;20068;-70
2024/03/30 09:22:31;;;;;;;17.20;2.95;;;;;;;22.66;45.50;99064.94;5034401;28;20026;-70
2024/03/30 09:24:57;;;;;;;22.08;3.60;;;;;;;23.05;45.03;99063.03;5034174;28;20042;-70
2024/03/30 09:27:23;;;;;;;24.98;3.95;;;;;;;23.25;44.40;99071.47;5033358;28;20417;-70
2024/03/30 09:29:50;;;;;;;18.05;4.05;;;;;;;23.34;44.91;99060.94;5016027;28;20152;-70
2024/03/30 09:32:16;;;;;;;23.77;4.32;;;;;;;23.46;44.34;99058.91;5016251;28;20030;-69
2024/03/30 09:34:41;;;;;;;23.52;3.75;;;;;;;23.63;44.36;99070.59;5033906;28;20033;-69
2024/03/30 09:37:12;;;;;;;27.88;3.72;;;;;;;23.66;43.94;99056.41;5000094;28;20126;-70
2024/03/30 09:39:39;;;;;;;31.23;3.85;;;;;;;23.65;43.41;99061.03;4983991;28;20042;-70
2024/03/30 09:42:08;;;;;;;35.53;5.55;;;;;;;23.61;43.12;99046.25;5017235;28;20032;-70
2024/03/30 09:44:35;;;;;;;29.63;4.95;;;;;;;23.62;43.33;99036.13;5017603;28;20120;-70
2024/03/30 09:47:02;;;;;;;23.27;4.18;;;;;;;23.60;42.56;99033.66;5017195;28;20030;-71
2024/03/30 09:49:29;;;;;;;33.00;3.95;;;;;;;23.51;42.41;99024.25;5033796;28;20033;-70
2024/03/30 09:51:55;;;;;;;29.23;3.63;;;;;;;23.48;42.73;99030.22;4999516;28;20057;-70
2024/03/30 09:54:21;;;;;;;29.48;5.47;;;;;;;23.43;42.46;99032.91;5015916;28;20087;-70
2024/03/30 09:56:47;;;;;;;32.63;4.53;;;;;;;23.37;42.29;99028.44;5015881;28;20053;-70
2024/03/30 09:59:13;;;;;;;23.92;4.57;;;;;;;23.34;42.07;99034.41;4982837;28;20034;-70
2024/03/30 10:01:38;;;;;;;35.03;3.78;;;;;;;23.32;41.36;99035.75;5015882;28;20509;-70
2024/03/30 10:04:04;;;;;;;30.48;4.57;;;;;;;23.29;42.08;99034.34;4982928;28;20047;-70
2024/03/30 10:06:34;;;;;;;13.20;3.05;;;;;;;23.29;41.00;99042.56;5033159;28;20037;-70
2024/03/30 10:09:03;;;;;;;32.75;5.15;;;;;;;23.25;40.90;99035.97;4983120;28;20061;-70
2024/03/30 10:11:32;;;;;;;21.75;4.50;;;;;;;23.25;41.61;99030.50;5015713;28;20033;-69
2024/03/30 10:14:06;;;;;;;33.40;4.47;;;;;;;23.25;41.56;99027.75;4998774;28;20064;-70
2024/03/30 10:16:32;;;;;;;28.23;4.07;;;;;;;23.23;40.98;99027.16;4998963;28;20033;-70
2024/03/30 10:18:58;;;;;;;24.88;3.60;;;;;;;23.22;41.12;99025.53;5015353;28;20056;-70
2024/03/30 10:21:24;;;;;;;27.98;4.97;;;;;;;23.19;41.07;99020.59;5015473;28;20072;-70
2024/03/30 10:23:52;;;;;;;36.97;4.75;;;;;;;23.24;40.60;99023.38;5015305;28;20033;-70
2024/03/30 10:26:18;;;;;;;18.90;2.95;;;;;;;23.23;41.46;99031.84;5015276;28;20099;-70
2024/03/30 10:28:44;;;;;;;37.63;5.78;;;;;;;23.29;40.49;99039.81;4998726;28;20046;-70
2024/03/30 10:31:10;;;;;;;22.23;3.70;;;;;;;23.29;40.70;99053.47;5032935;28;20069;-70
2024/03/30 10:33:36;;;;;;;31.02;4.30;;;;;;;23.30;41.23;99060.59;5014909;28;20053;-70
2024/03/30 10:36:02;;;;;;;25.77;4.32;;;;;;;23.32;40.51;99072.09;5014942;28;20033;-70
2024/03/30 10:38:28;;;;;;;38.25;5.43;;;;;;;23.32;40.78;99083.03;4999212;28;20505;-70
2024/03/30 10:40:56;;;;;;;22.40;3.35;;;;;;;23.33;40.50;99079.22;5036721;28;20075;-70
2024/03/30 10:43:23;;;;;;;28.77;4.05;;;;;;;23.35;40.19;99096.19;4986609;28;20072;-70
2024/03/30 10:45:49;;;;;;;22.60;4.35;;;;;;;23.39;40.12;99107.47;5002799;28;20168;-70
2024/03/30 10:48:15;;;;;;;28.50;3.90;;;;;;;23.40;40.41;99103.66;5019714;28;20069;-70
2024/03/30 10:50:41;;;;;;;21.15;3.55;;;;;;;23.45;40.52;99115.47;5018830;28;20421;-70
2024/03/30 10:53:06;;;;;;;24.35;3.78;;;;;;;23.50;40.87;99112.81;5018945;28;20100;-70
2024/03/30 10:55:39;;;;;;;23.63;3.22;;;;;;;23.53;40.54;99112.31;5018944;28;20040;-70
2024/03/30 10:58:05;;;;;;;32.17;4.85;;;;;;;23.57;40.19;99120.81;5018998;28;20041;-70
2024/03/30 11:00:30;;;;;;;31.02;4.10;;;;;;;23.58;40.66;99134.25;5002694;28;20045;-70
2024/03/30 11:02:57;;;;;;;24.02;4.35;;;;;;;23.57;40.51;99148.16;5002468;28;20069;-70
2024/03/30 11:05:26;;;;;;;23.85;3.35;;;;;;;23.57;40.79;99165.38;5002855;28;20030;-70
2024/03/30 11:07:51;;;;;;;21.45;4.38;;;;;;;23.55;40.58;99167.56;5018858;28;20108;-70
2024/03/30 11:10:17;;;;;;;22.05;3.47;;;;;;;23.53;41.20;99186.13;5018976;28;20493;-70
2024/03/30 11:12:43;;;;;;;20.60;3.47;;;;;;;23.53;40.75;99186.13;5036344;28;20527;-70
2024/03/30 11:15:09;;;;;;;27.70;3.95;;;;;;;23.54;40.88;99184.19;5002624;28;20066;-70
2024/03/30 11:18:11;;;;;;;16.80;2.50;;;;;;;23.54;41.00;99190.50;4988105;28;20493;-70
2024/03/30 11:20:48;;;;;;;15.52;2.53;;;;;;;23.53;40.63;99191.59;4987933;28;20053;-70
2024/03/30 11:23:35;;;;;;;16.67;3.85;;;;;;;23.44;40.79;99204.03;5036432;28;20045;-70
2024/03/30 11:26:09;;;;;;;12.48;3.20;;;;;;;23.30;41.40;99202.72;5001945;28;20120;-70
2024/03/30 11:28:46;;;;;;;15.85;4.05;;;;;;;23.27;40.75;99224.25;5002072;28;20041;-70
2024/03/30 11:31:25;;;;;;;12.48;2.60;;;;;;;23.26;41.10;99223.41;5018422;28;20497;-70